sensor_id;sensor_type;location;lat;lon;timestamp;pressure;altitude;pressure_sealevel;temperature;humidity
51972;BME280;37991;49.662;10.060;2022-12-07T00:00:41;99351.13;;;2.65;100.00
51972;BME280;37991;49.662;10.060;2022-12-07T00:03:06;99350.25;;;2.65;100.00
51972;BME280;37991;49.662;10.060;2022-12-07T00:05:31;99344.31;;;2.63;100.00
51972;BME280;37991;49.662;10.060;2022-12-07T00:07:57;99351.22;;;2.62;100.00
51972;BME280;37991;49.662;10.060;2022-12-07T00:10:22;99347.00;;;2.60;100.00
51972;BME280;37991;49.662;10.060;2022-12-07T00:12:48;99342.78;;;2.57;100.00
51972;BME280;37991;49.662;10.060;2022-12-07T00:15:13;99342.91;;;2.54;100.00
51972;BME280;37991;49.662;10.060;2022-12-07T00:17:39;99341.44;;;2.47;100.00
51972;BME280;37991;49.662;10.060;2022-12-07T00:20:05;99342.63;;;2.38;100.00
51972;BME280;37991;49.662;10.060;2022-12-07T00:22:30;99344.47;;;2.35;100.00
51972;BME280;37991;49.662;10.060;2022-12-07T00:24:55;99342.06;;;2.30;100.00
51972;BME280;37991;49.662;10.060;2022-12-07T00:27:21;99336.91;;;2.30;100.00
51972;BME280;37991;49.662;10.060;2022-12-07T00:29:46;99339.63;;;2.25;100.00
51972;BME280;37991;49.662;10.060;2022-12-07T00:32:11;99337.16;;;2.22;100.00
51972;BME280;37991;49.662;10.060;2022-12-07T00:34:37;99339.00;;;2.19;100.00
51972;BME280;37991;49.662;10.060;2022-12-07T00:37:02;99344.19;;;2.19;100.00
51972;BME280;37991;49.662;10.060;2022-12-07T00:39:27;99347.72;;;2.16;100.00
51972;BME280;37991;49.662;10.060;2022-12-07T00:41:53;99345.19;;;2.15;100.00
51972;BME280;37991;49.662;10.060;2022-12-07T00:44:18;99336.66;;;2.13;100.00
51972;BME280;37991;49.662;10.060;2022-12-07T00:46:43;99336.59;;;2.14;100.00
51972;BME280;37991;49.662;10.060;2022-12-07T00:49:10;99333.25;;;2.10;100.00
51972;BME280;37991;49.662;10.060;2022-12-07T00:51:35;99335.13;;;2.07;100.00
51972;BME280;37991;49.662;10.060;2022-12-07T00:54:01;99342.00;;;2.08;100.00
51972;BME280;37991;49.662;10.060;2022-12-07T00:56:28;99342.94;;;2.05;100.00
51972;BME280;37991;49.662;10.060;2022-12-07T00:59:00;99342.03;;;2.06;100.00
51972;BME280;37991;49.662;10.060;2022-12-07T01:01:27;99349.69;;;2.09;100.00
51972;BME280;37991;49.662;10.060;2022-12-07T01:03:53;99345.41;;;2.08;100.00
51972;BME280;37991;49.662;10.060;2022-12-07T01:06:20;99338.59;;;2.06;100.00
51972;BME280;37991;49.662;10.060;2022-12-07T01:08:46;99345.41;;;2.08;100.00
51972;BME280;37991;49.662;10.060;2022-12-07T01:11:18;99336.03;;;2.06;100.00
51972;BME280;37991;49.662;10.060;2022-12-07T01:13:44;99336.66;;;2.13;100.00
51972;BME280;37991;49.662;10.060;2022-12-07T01:16:12;99326.38;;;2.11;100.00
51972;BME280;37991;49.662;10.060;2022-12-07T01:18:38;99327.25;;;2.10;100.00
51972;BME280;37991;49.662;10.060;2022-12-07T01:21:08;99309.28;;;2.07;100.00
51972;BME280;37991;49.662;10.060;2022-12-07T01:23:35;99300.06;;;2.00;100.00
51972;BME280;37991;49.662;10.060;2022-12-07T01:26:06;99301.63;;;2.04;100.00
51972;BME280;37991;49.662;10.060;2022-12-07T01:28:32;99314.50;;;2.05;100.00
51972;BME280;37991;49.662;10.060;2022-12-07T01:31:04;99325.06;;;1.99;100.00
51972;BME280;37991;49.662;10.060;2022-12-07T01:33:32;99319.94;;;1.98;100.00
51972;BME280;37991;49.662;10.060;2022-12-07T01:36:06;99318.13;;;2.01;100.00
51972;BME280;37991;49.662;10.060;2022-12-07T01:38:32;99323.16;;;2.04;100.00
51972;BME280;37991;49.662;10.060;2022-12-07T01:40:59;99308.53;;;2.03;100.00
51972;BME280;37991;49.662;10.060;2022-12-07T01:43:26;99308.41;;;2.08;100.00
51972;BME280;37991;49.662;10.060;2022-12-07T01:45:53;99311.97;;;2.04;100.00
51972;BME280;37991;49.662;10.060;2022-12-07T01:48:23;99304.97;;;2.07;100.00
51972;BME280;37991;49.662;10.060;2022-12-07T01:50:51;99305.13;;;2.03;100.00
51972;BME280;37991;49.662;10.060;2022-12-07T01:53:17;99300.69;;;2.06;100.00
51972;BME280;37991;49.662;10.060;2022-12-07T01:55:46;99302.38;;;2.07;100.00
51972;BME280;37991;49.662;10.060;2022-12-07T01:58:13;99303.22;;;2.08;100.00
51972;BME280;37991;49.662;10.060;2022-12-07T02:00:40;99304.06;;;2.08;100.00
51972;BME280;37991;49.662;10.060;2022-12-07T02:03:09;99312.72;;;2.07;100.00
51972;BME280;37991;49.662;10.060;2022-12-07T02:05:38;99308.53;;;2.03;99.81
51972;BME280;37991;49.662;10.060;2022-12-07T02:08:04;99303.78;;;1.93;100.00
51972;BME280;37991;49.662;10.060;2022-12-07T02:10:31;99291.78;;;1.90;100.00
51972;BME280;37991;49.662;10.060;2022-12-07T02:13:13;99288.38;;;1.90;100.00
51972;BME280;37991;49.662;10.060;2022-12-07T02:20:40;99277.31;;;1.86;99.21
51972;BME280;37991;49.662;10.060;2022-12-07T02:34:36;99280.56;;;1.91;98.43
51972;BME280;37991;49.662;10.060;2022-12-07T02:37:10;99272.91;;;1.88;98.50
51972;BME280;37991;49.662;10.060;2022-12-07T02:39:47;99278.94;;;1.89;98.38
51972;BME280;37991;49.662;10.060;2022-12-07T02:42:18;99279.88;;;1.86;98.17
51972;BME280;37991;49.662;10.060;2022-12-07T02:44:46;99280.72;;;1.86;98.26
51972;BME280;37991;49.662;10.060;2022-12-07T02:47:15;99280.66;;;1.88;98.67
51972;BME280;37991;49.662;10.060;2022-12-07T02:49:42;99277.25;;;1.88;97.99
51972;BME280;37991;49.662;10.060;2022-12-07T02:52:08;99268.63;;;1.89;98.54
51972;BME280;37991;49.662;10.060;2022-12-07T02:54:33;99267.59;;;1.93;98.58
51972;BME280;37991;49.662;10.060;2022-12-07T02:59:48;99252.25;;;1.88;98.24
51972;BME280;37991;49.662;10.060;2022-12-07T03:10:28;99270.09;;;1.94;98.10
51972;BME280;37991;49.662;10.060;2022-12-07T03:18:31;99260.78;;;1.90;97.98
51972;BME280;37991;49.662;10.060;2022-12-07T03:21:06;99262.44;;;1.93;97.46
51972;BME280;37991;49.662;10.060;2022-12-07T03:23:35;99258.16;;;1.92;97.76
51972;BME280;37991;49.662;10.060;2022-12-07T03:26:04;99251.19;;;1.94;98.05
51972;BME280;37991;49.662;10.060;2022-12-07T03:28:36;99250.47;;;1.90;98.15
51972;BME280;37991;49.662;10.060;2022-12-07T03:31:17;99258.09;;;1.93;97.44
51972;BME280;37991;49.662;10.060;2022-12-07T03:34:01;99246.25;;;1.88;97.83
51972;BME280;37991;49.662;10.060;2022-12-07T03:36:33;99255.72;;;1.87;97.70
51972;BME280;37991;49.662;10.060;2022-12-07T03:39:21;99252.34;;;1.85;97.38
51972;BME280;37991;49.662;10.060;2022-12-07T03:41:48;99256.47;;;1.91;97.69
51972;BME280;37991;49.662;10.060;2022-12-07T03:44:15;99246.09;;;1.92;97.47
51972;BME280;37991;49.662;10.060;2022-12-07T03:47:25;99252.03;;;1.94;97.07
51972;BME280;37991;49.662;10.060;2022-12-07T03:52:21;99233.09;;;1.94;97.82
51972;BME280;37991;49.662;10.060;2022-12-07T03:54:51;99231.34;;;1.94;97.43
51972;BME280;37991;49.662;10.060;2022-12-07T03:57:20;99226.38;;;1.90;97.01
51972;BME280;37991;49.662;10.060;2022-12-07T03:59:47;99230.63;;;1.91;96.88
51972;BME280;37991;49.662;10.060;2022-12-07T04:02:13;99234.91;;;1.92;97.51
51972;BME280;37991;49.662;10.060;2022-12-07T04:04:40;99240.31;;;1.85;97.45
51972;BME280;37991;49.662;10.060;2022-12-07T04:07:05;99235.88;;;1.89;97.64
51972;BME280;37991;49.662;10.060;2022-12-07T04:09:31;99238.44;;;1.89;97.05
51972;BME280;37991;49.662;10.060;2022-12-07T04:11:56;99236.84;;;1.85;97.96
51972;BME280;37991;49.662;10.060;2022-12-07T04:14:21;99233.22;;;1.91;97.90
51972;BME280;37991;49.662;10.060;2022-12-07T04:16:49;99230.75;;;1.88;98.06
51972;BME280;37991;49.662;10.060;2022-12-07T04:19:16;99221.09;;;1.93;97.69
51972;BME280;37991;49.662;10.060;2022-12-07T04:21:42;99233.16;;;1.92;97.73
51972;BME280;37991;49.662;10.060;2022-12-07T04:24:07;99239.09;;;1.94;97.47
51972;BME280;37991;49.662;10.060;2022-12-07T04:26:33;99230.75;;;1.88;97.67
51972;BME280;37991;49.662;10.060;2022-12-07T04:28:58;99237.50;;;1.92;97.72
51972;BME280;37991;49.662;10.060;2022-12-07T04:31:23;99239.00;;;1.97;98.26
51972;BME280;37991;49.662;10.060;2022-12-07T04:33:49;99238.22;;;1.95;98.02
51972;BME280;37991;49.662;10.060;2022-12-07T04:36:15;99239.78;;;1.99;97.53
51972;BME280;37991;49.662;10.060;2022-12-07T04:38:40;99246.53;;;2.03;97.61
51972;BME280;37991;49.662;10.060;2022-12-07T04:41:06;99251.47;;;2.09;97.56
51972;BME280;37991;49.662;10.060;2022-12-07T04:43:33;99253.22;;;2.09;97.69
51972;BME280;37991;49.662;10.060;2022-12-07T04:45:58;99257.69;;;2.04;97.47
51972;BME280;37991;49.662;10.060;2022-12-07T04:48:23;99251.47;;;2.09;97.91
51972;BME280;37991;49.662;10.060;2022-12-07T04:50:49;99257.44;;;2.12;97.64
51972;BME280;37991;49.662;10.060;2022-12-07T04:53:15;99261.88;;;2.08;98.16
51972;BME280;37991;49.662;10.060;2022-12-07T04:55:40;99260.25;;;2.05;98.07
51972;BME280;37991;49.662;10.060;2022-12-07T04:58:05;99253.41;;;2.04;98.41
51972;BME280;37991;49.662;10.060;2022-12-07T05:00:31;99251.34;;;2.13;98.28
51972;BME280;37991;49.662;10.060;2022-12-07T05:02:56;99254.00;;;2.11;98.16
51972;BME280;37991;49.662;10.060;2022-12-07T05:05:22;99259.06;;;2.14;98.07
51972;BME280;37991;49.662;10.060;2022-12-07T05:07:47;99251.31;;;2.14;98.10
51972;BME280;37991;49.662;10.060;2022-12-07T05:10:12;99247.00;;;2.15;97.24
51972;BME280;37991;49.662;10.060;2022-12-07T05:12:38;99257.44;;;2.12;97.78
51972;BME280;37991;49.662;10.060;2022-12-07T05:15:04;99258.19;;;2.14;97.75
51972;BME280;37991;49.662;10.060;2022-12-07T05:17:29;99256.75;;;2.06;97.93
51972;BME280;37991;49.662;10.060;2022-12-07T05:19:55;99254.16;;;2.06;97.86
51972;BME280;37991;49.662;10.060;2022-12-07T05:22:20;99255.56;;;2.15;97.67
51972;BME280;37991;49.662;10.060;2022-12-07T05:24:46;99259.91;;;2.15;98.37
51972;BME280;37991;49.662;10.060;2022-12-07T05:27:11;99258.38;;;2.09;98.44
51972;BME280;37991;49.662;10.060;2022-12-07T05:29:37;99261.88;;;2.08;98.58
51972;BME280;37991;49.662;10.060;2022-12-07T05:32:02;99254.47;;;1.99;98.70
51972;BME280;37991;49.662;10.060;2022-12-07T05:34:27;99251.81;;;2.00;99.08
51972;BME280;37991;49.662;10.060;2022-12-07T05:36:53;99256.09;;;2.01;98.92
51972;BME280;37991;49.662;10.060;2022-12-07T05:39:18;99256.25;;;1.97;99.08
51972;BME280;37991;49.662;10.060;2022-12-07T05:41:44;99245.91;;;1.97;99.06
51972;BME280;37991;49.662;10.060;2022-12-07T05:44:28;99250.34;;;1.93;99.07
51972;BME280;37991;49.662;10.060;2022-12-07T05:46:53;99245.13;;;1.95;99.26
51972;BME280;37991;49.662;10.060;2022-12-07T05:49:19;99235.66;;;1.95;99.18
51972;BME280;37991;49.662;10.060;2022-12-07T05:51:44;99240.69;;;1.98;99.27
51972;BME280;37991;49.662;10.060;2022-12-07T05:54:10;99237.09;;;2.02;99.13
51972;BME280;37991;49.662;10.060;2022-12-07T05:56:35;99232.16;;;1.96;99.41
51972;BME280;37991;49.662;10.060;2022-12-07T05:59:00;99230.47;;;1.95;99.21
51972;BME280;37991;49.662;10.060;2022-12-07T06:01:44;99224.31;;;1.98;99.21
51972;BME280;37991;49.662;10.060;2022-12-07T06:04:10;99223.34;;;2.02;99.18
51972;BME280;37991;49.662;10.060;2022-12-07T06:06:35;99224.06;;;2.05;98.92
51972;BME280;37991;49.662;10.060;2022-12-07T06:09:00;99236.16;;;2.05;99.23
51972;BME280;37991;49.662;10.060;2022-12-07T06:11:26;99231.69;;;2.08;99.63
51972;BME280;37991;49.662;10.060;2022-12-07T06:14:10;99233.34;;;2.11;99.43
51972;BME280;37991;49.662;10.060;2022-12-07T06:16:35;99232.31;;;2.15;99.98
51972;BME280;37991;49.662;10.060;2022-12-07T06:19:00;99232.53;;;2.09;100.00
51972;BME280;37991;49.662;10.060;2022-12-07T06:21:26;99231.84;;;2.04;100.00
51972;BME280;37991;49.662;10.060;2022-12-07T06:23:52;99228.31;;;2.06;100.00
51972;BME280;37991;49.662;10.060;2022-12-07T06:26:17;99229.38;;;2.01;100.00
51972;BME280;37991;49.662;10.060;2022-12-07T06:28:42;99226.91;;;1.98;100.00
51972;BME280;37991;49.662;10.060;2022-12-07T06:31:08;99223.59;;;1.94;100.00
51972;BME280;37991;49.662;10.060;2022-12-07T06:33:33;99232.16;;;1.96;100.00
51972;BME280;37991;49.662;10.060;2022-12-07T06:35:59;99229.63;;;1.95;100.00
51972;BME280;37991;49.662;10.060;2022-12-07T06:38:24;99230.59;;;1.92;100.00
51972;BME280;37991;49.662;10.060;2022-12-07T06:40:50;99232.16;;;1.96;100.00
51972;BME280;37991;49.662;10.060;2022-12-07T06:43:15;99239.09;;;1.94;100.00
51972;BME280;37991;49.662;10.060;2022-12-07T06:45:41;99244.06;;;2.00;100.00
51972;BME280;37991;49.662;10.060;2022-12-07T06:48:06;99235.69;;;1.94;100.00
51972;BME280;37991;49.662;10.060;2022-12-07T06:50:32;99232.22;;;1.95;100.00
51972;BME280;37991;49.662;10.060;2022-12-07T06:52:57;99228.53;;;2.00;100.00
51972;BME280;37991;49.662;10.060;2022-12-07T06:55:23;99237.81;;;2.06;100.00
51972;BME280;37991;49.662;10.060;2022-12-07T06:57:48;99241.84;;;2.13;100.00
51972;BME280;37991;49.662;10.060;2022-12-07T07:00:14;99251.44;;;2.11;100.00
51972;BME280;37991;49.662;10.060;2022-12-07T07:02:39;99237.59;;;2.12;100.00
51972;BME280;37991;49.662;10.060;2022-12-07T07:05:05;99241.84;;;2.13;100.00
51972;BME280;37991;49.662;10.060;2022-12-07T07:07:30;99240.00;;;2.17;100.00
51972;BME280;37991;49.662;10.060;2022-12-07T07:09:56;99241.69;;;2.18;100.00
51972;BME280;37991;49.662;10.060;2022-12-07T07:12:21;99248.66;;;2.16;100.00
51972;BME280;37991;49.662;10.060;2022-12-07T07:14:46;99241.63;;;2.19;100.00
51972;BME280;37991;49.662;10.060;2022-12-07T07:17:12;99240.69;;;2.22;100.00
51972;BME280;37991;49.662;10.060;2022-12-07T07:19:37;99243.16;;;2.25;100.00
51972;BME280;37991;49.662;10.060;2022-12-07T07:22:03;99238.81;;;2.25;100.00
51972;BME280;37991;49.662;10.060;2022-12-07T07:24:29;99242.13;;;2.29;100.00
51972;BME280;37991;49.662;10.060;2022-12-07T07:26:54;99249.03;;;2.28;100.00
51972;BME280;37991;49.662;10.060;2022-12-07T07:29:20;99245.50;;;2.31;100.00
51972;BME280;37991;49.662;10.060;2022-12-07T07:31:45;99250.72;;;2.29;99.92
51972;BME280;37991;49.662;10.060;2022-12-07T07:34:11;99258.31;;;2.34;100.00
51972;BME280;37991;49.662;10.060;2022-12-07T07:36:36;99258.22;;;2.37;99.97
51972;BME280;37991;49.662;10.060;2022-12-07T07:39:02;99250.38;;;2.39;99.55
51972;BME280;37991;49.662;10.060;2022-12-07T07:41:27;99252.91;;;2.40;99.59
51972;BME280;37991;49.662;10.060;2022-12-07T07:43:52;99255.50;;;2.40;99.29
51972;BME280;37991;49.662;10.060;2022-12-07T07:46:18;99260.38;;;2.48;99.29
51972;BME280;37991;49.662;10.060;2022-12-07T07:48:43;99249.31;;;2.44;99.21
51972;BME280;37991;49.662;10.060;2022-12-07T07:51:08;99252.69;;;2.46;99.69
51972;BME280;37991;49.662;10.060;2022-12-07T07:53:35;99256.88;;;2.49;99.58
51972;BME280;37991;49.662;10.060;2022-12-07T07:56:00;99255.19;;;2.48;99.38
51972;BME280;37991;49.662;10.060;2022-12-07T07:58:25;99253.41;;;2.50;99.35
51972;BME280;37991;49.662;10.060;2022-12-07T08:00:51;99257.56;;;2.54;99.00
51972;BME280;37991;49.662;10.060;2022-12-07T08:03:16;99263.53;;;2.56;99.28
51972;BME280;37991;49.662;10.060;2022-12-07T08:05:42;99265.03;;;2.62;98.84
51972;BME280;37991;49.662;10.060;2022-12-07T08:08:07;99260.84;;;2.58;99.14
51972;BME280;37991;49.662;10.060;2022-12-07T08:10:32;99270.22;;;2.62;99.02
51972;BME280;37991;49.662;10.060;2022-12-07T08:12:59;99262.25;;;2.66;99.56
51972;BME280;37991;49.662;10.060;2022-12-07T08:15:40;99269.91;;;2.69;99.19
51972;BME280;37991;49.662;10.060;2022-12-07T08:18:06;99262.84;;;2.73;98.76
51972;BME280;37991;49.662;10.060;2022-12-07T08:20:33;99269.72;;;2.74;98.56
51972;BME280;37991;49.662;10.060;2022-12-07T08:22:59;99258.47;;;2.75;98.56
51972;BME280;37991;49.662;10.060;2022-12-07T08:25:25;99256.53;;;2.80;98.75
51972;BME280;37991;49.662;10.060;2022-12-07T08:27:51;99256.53;;;2.80;98.69
51972;BME280;37991;49.662;10.060;2022-12-07T08:30:17;99250.47;;;2.81;98.31
51972;BME280;37991;49.662;10.060;2022-12-07T08:32:44;99258.13;;;2.84;98.45
51972;BME280;37991;49.662;10.060;2022-12-07T08:35:10;99261.53;;;2.85;98.36
51972;BME280;37991;49.662;10.060;2022-12-07T08:37:36;99267.47;;;2.87;98.50
51972;BME280;37991;49.662;10.060;2022-12-07T08:40:02;99270.84;;;2.89;98.27
51972;BME280;37991;49.662;10.060;2022-12-07T08:42:28;99267.31;;;2.91;98.08
51972;BME280;37991;49.662;10.060;2022-12-07T08:44:55;99268.03;;;2.95;98.38
51972;BME280;37991;49.662;10.060;2022-12-07T08:47:21;99266.94;;;3.00;98.20
51972;BME280;37991;49.662;10.060;2022-12-07T08:49:48;99266.16;;;2.98;98.09
51972;BME280;37991;49.662;10.060;2022-12-07T08:52:15;99262.72;;;2.98;98.10
51972;BME280;37991;49.662;10.060;2022-12-07T08:54:41;99267.06;;;2.97;98.51
51972;BME280;37991;49.662;10.060;2022-12-07T08:57:07;99269.53;;;3.00;97.94
51972;BME280;37991;49.662;10.060;2022-12-07T08:59:35;99265.06;;;3.04;97.20
51972;BME280;37991;49.662;10.060;2022-12-07T09:02:01;99271.09;;;3.05;97.29
51972;BME280;37991;49.662;10.060;2022-12-07T09:04:26;99274.75;;;2.99;97.59
51972;BME280;37991;49.662;10.060;2022-12-07T09:06:52;99272.25;;;2.97;97.71
51972;BME280;37991;49.662;10.060;2022-12-07T09:09:18;99263.44;;;3.01;97.33
51972;BME280;37991;49.662;10.060;2022-12-07T09:11:43;99274.88;;;2.96;97.83
51972;BME280;37991;49.662;10.060;2022-12-07T09:14:10;99268.81;;;2.97;98.25
51972;BME280;37991;49.662;10.060;2022-12-07T09:16:37;99271.22;;;3.01;97.96
51972;BME280;37991;49.662;10.060;2022-12-07T09:19:03;99265.78;;;3.08;97.71
51972;BME280;37991;49.662;10.060;2022-12-07T09:21:28;99268.41;;;3.06;97.51
51972;BME280;37991;49.662;10.060;2022-12-07T09:23:53;99267.41;;;3.10;97.56
51972;BME280;37991;49.662;10.060;2022-12-07T09:26:19;99263.88;;;3.13;97.04
51972;BME280;37991;49.662;10.060;2022-12-07T09:28:44;99268.00;;;3.17;96.93
51972;BME280;37991;49.662;10.060;2022-12-07T09:31:10;99268.66;;;3.22;97.22
51972;BME280;37991;49.662;10.060;2022-12-07T09:33:35;99267.69;;;3.24;97.15
51972;BME280;37991;49.662;10.060;2022-12-07T09:36:00;99263.22;;;3.28;96.87
51972;BME280;37991;49.662;10.060;2022-12-07T09:38:26;99264.66;;;3.35;96.54
51972;BME280;37991;49.662;10.060;2022-12-07T09:40:53;99268.00;;;3.37;97.11
51972;BME280;37991;49.662;10.060;2022-12-07T09:43:22;99270.56;;;3.39;96.45
51972;BME280;37991;49.662;10.060;2022-12-07T09:45:51;99265.38;;;3.39;96.63
51972;BME280;37991;49.662;10.060;2022-12-07T09:48:29;99267.75;;;3.43;96.50
51972;BME280;37991;49.662;10.060;2022-12-07T09:50:57;99266.09;;;3.42;96.32
51972;BME280;37991;49.662;10.060;2022-12-07T09:53:33;99262.66;;;3.42;96.96
51972;BME280;37991;49.662;10.060;2022-12-07T09:56:00;99269.13;;;3.52;96.57
51972;BME280;37991;49.662;10.060;2022-12-07T09:58:27;99261.53;;;3.47;96.05
51972;BME280;37991;49.662;10.060;2022-12-07T10:00:57;99262.13;;;3.54;96.45
51972;BME280;37991;49.662;10.060;2022-12-07T10:03:25;99264.72;;;3.54;96.50
51972;BME280;37991;49.662;10.060;2022-12-07T10:05:51;99262.78;;;3.59;96.70
51972;BME280;37991;49.662;10.060;2022-12-07T10:08:16;99264.91;;;3.70;96.17
51972;BME280;37991;49.662;10.060;2022-12-07T10:10:43;99263.34;;;3.66;96.38
51972;BME280;37991;49.662;10.060;2022-12-07T10:13:11;99260.84;;;3.64;95.62
51972;BME280;37991;49.662;10.060;2022-12-07T10:15:51;99254.66;;;3.67;95.23
51972;BME280;37991;49.662;10.060;2022-12-07T10:20:45;99238.44;;;3.82;95.70
51972;BME280;37991;49.662;10.060;2022-12-07T10:23:18;99244.06;;;3.92;95.01
51972;BME280;37991;49.662;10.060;2022-12-07T10:25:44;99242.34;;;3.92;95.57
51972;BME280;37991;49.662;10.060;2022-12-07T10:28:16;99237.66;;;4.01;95.62
51972;BME280;37991;49.662;10.060;2022-12-07T10:30:59;99236.81;;;4.00;95.45
51972;BME280;37991;49.662;10.060;2022-12-07T10:33:48;99238.63;;;3.98;95.17
51972;BME280;37991;49.662;10.060;2022-12-07T10:38:48;99229.72;;;4.04;95.04
51972;BME280;37991;49.662;10.060;2022-12-07T10:41:14;99234.91;;;4.04;94.41
51972;BME280;37991;49.662;10.060;2022-12-07T10:43:50;99234.22;;;4.00;95.23
51972;BME280;37991;49.662;10.060;2022-12-07T10:52:10;99241.22;;;4.17;94.79
51972;BME280;37991;49.662;10.060;2022-12-07T10:55:12;99231.06;;;4.12;94.79
51972;BME280;37991;49.662;10.060;2022-12-07T11:00:22;99229.19;;;4.16;95.01
51972;BME280;37991;49.662;10.060;2022-12-07T11:17:05;99217.34;;;4.10;94.16
51972;BME280;37991;49.662;10.060;2022-12-07T11:25:16;99207.47;;;4.18;93.51
51972;BME280;37991;49.662;10.060;2022-12-07T11:28:09;99192.78;;;4.17;93.72
51972;BME280;37991;49.662;10.060;2022-12-07T11:41:05;99189.31;;;4.37;92.71
51972;BME280;37991;49.662;10.060;2022-12-07T11:43:58;99187.25;;;4.44;92.19
51972;BME280;37991;49.662;10.060;2022-12-07T11:46:27;99191.53;;;4.45;92.59
51972;BME280;37991;49.662;10.060;2022-12-07T11:51:21;99185.91;;;4.54;92.08
51972;BME280;37991;49.662;10.060;2022-12-07T11:53:58;99174.69;;;4.54;91.94
51972;BME280;37991;49.662;10.060;2022-12-07T11:56:27;99177.34;;;4.52;92.35
51972;BME280;37991;49.662;10.060;2022-12-07T12:02:28;99179.25;;;4.49;91.70
51972;BME280;37991;49.662;10.060;2022-12-07T12:05:18;99177.44;;;4.51;92.01
51972;BME280;37991;49.662;10.060;2022-12-07T12:07:52;99177.56;;;4.48;91.46
51972;BME280;37991;49.662;10.060;2022-12-07T12:10:36;99170.69;;;4.47;91.62
51972;BME280;37991;49.662;10.060;2022-12-07T12:13:36;99165.44;;;4.48;91.34
51972;BME280;37991;49.662;10.060;2022-12-07T12:19:11;99163.75;;;4.47;91.92
51972;BME280;37991;49.662;10.060;2022-12-07T12:21:42;99160.53;;;4.42;91.24
51972;BME280;37991;49.662;10.060;2022-12-07T12:24:20;99163.22;;;4.40;92.07
51972;BME280;37991;49.662;10.060;2022-12-07T12:26:51;99164.94;;;4.40;92.00
51972;BME280;37991;49.662;10.060;2022-12-07T12:29:31;99161.59;;;4.38;92.71
51972;BME280;37991;49.662;10.060;2022-12-07T12:32:07;99168.41;;;4.40;92.24
51972;BME280;37991;49.662;10.060;2022-12-07T12:34:57;99157.09;;;4.41;92.60
51972;BME280;37991;49.662;10.060;2022-12-07T12:45:29;99147.50;;;4.43;91.48
51972;BME280;37991;49.662;10.060;2022-12-07T12:47:59;99156.66;;;4.51;92.14
51972;BME280;37991;49.662;10.060;2022-12-07T12:56:20;99139.34;;;4.51;92.87
51972;BME280;37991;49.662;10.060;2022-12-07T13:01:30;99137.28;;;4.58;92.29
51972;BME280;37991;49.662;10.060;2022-12-07T13:03:34;99135.63;;;4.57;92.63
51972;BME280;37991;49.662;10.060;2022-12-07T13:06:18;99122.56;;;4.58;91.82
51972;BME280;37991;49.662;10.060;2022-12-07T13:08:45;99125.84;;;4.62;91.03
51972;BME280;37991;49.662;10.060;2022-12-07T13:16:57;99112.56;;;4.51;90.44
51972;BME280;37991;49.662;10.060;2022-12-07T13:25:23;99115.16;;;4.51;91.64
51972;BME280;37991;49.662;10.060;2022-12-07T13:28:17;99109.06;;;4.52;91.56
51972;BME280;37991;49.662;10.060;2022-12-07T13:33:27;99118.59;;;4.51;93.94
51972;BME280;37991;49.662;10.060;2022-12-07T13:35:54;99106.75;;;4.46;94.81
51972;BME280;37991;49.662;10.060;2022-12-07T13:38:33;99110.88;;;4.50;95.33
51972;BME280;37991;49.662;10.060;2022-12-07T13:43:25;99115.16;;;4.51;95.33
51972;BME280;37991;49.662;10.060;2022-12-07T13:45:57;99102.19;;;4.51;94.82
51972;BME280;37991;49.662;10.060;2022-12-07T13:48:36;99112.72;;;4.48;94.92
51972;BME280;37991;49.662;10.060;2022-12-07T13:51:17;99113.00;;;4.41;94.40
51972;BME280;37991;49.662;10.060;2022-12-07T13:53:49;99109.44;;;4.44;95.69
51972;BME280;37991;49.662;10.060;2022-12-07T13:56:15;99110.47;;;4.40;94.28
51972;BME280;37991;49.662;10.060;2022-12-07T13:58:41;99118.34;;;4.38;94.44
51972;BME280;37991;49.662;10.060;2022-12-07T14:01:07;99110.78;;;4.34;94.28
51972;BME280;37991;49.662;10.060;2022-12-07T14:03:34;99111.63;;;4.34;93.65
51972;BME280;37991;49.662;10.060;2022-12-07T14:08:42;99119.00;;;4.25;92.11
51972;BME280;37991;49.662;10.060;2022-12-07T14:11:18;99109.47;;;4.25;91.88
51972;BME280;37991;49.662;10.060;2022-12-07T14:13:56;99113.09;;;4.21;92.17
51972;BME280;37991;49.662;10.060;2022-12-07T14:16:31;99118.53;;;4.16;92.70
51972;BME280;37991;49.662;10.060;2022-12-07T14:18:58;99110.84;;;4.15;92.53
51972;BME280;37991;49.662;10.060;2022-12-07T14:21:27;99103.81;;;4.17;93.36
51972;BME280;37991;49.662;10.060;2022-12-07T14:24:11;99121.00;;;4.01;92.89
51972;BME280;37991;49.662;10.060;2022-12-07T14:26:39;99117.56;;;4.00;92.87
51972;BME280;37991;49.662;10.060;2022-12-07T14:31:51;99114.63;;;3.89;91.69
51972;BME280;37991;49.662;10.060;2022-12-07T14:34:19;99112.41;;;3.81;91.84
51972;BME280;37991;49.662;10.060;2022-12-07T14:36:45;99108.19;;;3.79;92.32
51972;BME280;37991;49.662;10.060;2022-12-07T14:39:10;99108.88;;;3.82;92.13
51972;BME280;37991;49.662;10.060;2022-12-07T14:41:36;99115.53;;;3.69;92.25
51972;BME280;37991;49.662;10.060;2022-12-07T14:44:18;99109.00;;;3.60;92.56
51972;BME280;37991;49.662;10.060;2022-12-07T14:46:44;99108.25;;;3.58;93.11
51972;BME280;37991;49.662;10.060;2022-12-07T14:49:10;99116.22;;;3.54;93.22
51972;BME280;37991;49.662;10.060;2022-12-07T14:51:38;99108.66;;;3.49;93.29
51972;BME280;37991;49.662;10.060;2022-12-07T14:54:06;99110.56;;;3.45;93.66
51972;BME280;37991;49.662;10.060;2022-12-07T14:56:37;99107.31;;;3.40;94.60
51972;BME280;37991;49.662;10.060;2022-12-07T14:59:02;99109.22;;;3.37;95.40
51972;BME280;37991;49.662;10.060;2022-12-07T15:01:27;99110.31;;;3.31;96.11
51972;BME280;37991;49.662;10.060;2022-12-07T15:03:53;99095.75;;;3.29;96.19
51972;BME280;37991;49.662;10.060;2022-12-07T15:06:18;99087.16;;;3.28;96.37
51972;BME280;37991;49.662;10.060;2022-12-07T15:08:44;99089.13;;;3.23;96.44
51972;BME280;37991;49.662;10.060;2022-12-07T15:11:17;99089.38;;;3.17;96.83